Claremore, OK (74017)

1:11 PM CDT on August 20, 2017 (GMT -0500)
Will Rogers Heights II | | Change Station
Active Advisory: Heat Advisory

Elev 725 ft 36.33 °N, 95.63 °W | Updated 2 minutes ago

Clear
Clear
94.3 °F
Feels Like 112 °F
N
3.0
Wind Variable Wind from SE
Gusts 7.0 mph

Today
High -- | Low -- °F
--% Chance of Precip.
Yesterday
High -- | Low -- °F
Precip. -- in
Pressure 30.02 in
Visibility 10.0 miles
Clouds Clear
Heat Index 112 °F
Dew Point 79 °F
Humidity 61%
Rainfall 0.00 in
Snow Depth Not available.
6:44 AM 8:06 PM
Waning Crescent, 1% visible
METAR KGCM 201755Z AUTO 19009KT 10SM CLR 32/23 A3002 RMK AO2
Pressure 30.02 in
Visibility 10.0 miles
Clouds Clear
Heat Index 112 °F
Dew Point 79 °F
Humidity 61%
Rainfall 0.00 in
Snow Depth Not available.
6:44 AM 8:06 PM
Waning Crescent, 1% visible
METAR KGCM 201755Z AUTO 19009KT 10SM CLR 32/23 A3002 RMK AO2

Get Your Daily Forecast Email!

Thanks for signing up!

Be on the lookout for a verification email in your inbox.

You'll start receiving severe weather alerts in your inbox..

×

10-Day Weather Forecast

Almanac

Astronomy

Aug. 20, 2017 Rise Set
Actual Time
Civil Twilight
Nautical Twilight
Astronomical Twilight
Moon
Length of Visible Light
Length of Day
Tomorrow will be .
, % of the Moon is Illuminated

Today's Extremes

State Highs State Lows

Community

WunderPhotos

Category 6

Welcome to Category 6. This is the collective home for Weather Underground's featured writeups by Dr. Jeff Masters (right), Bob Henson (left), Chris Burt, and other regular contributors.

Nearby

Air Quality

  Air Quality AQ Index Pollutant
Not available.

Snow Depth

Station Depth Elevation

Earthquake Activity

City Distance Mag. Time & Date
Minimum magnitude displayed is 2.5.

Coastal Water Temperatures

Place Temperature

Stations

Nearby Weather Stations

Station Location Temp. Windchill Dew Point Humidity Wind Precip. Elev Updated Type
                   

Watches & Warnings

Heat Advisory
Issued: 10:27 AM CDT Aug. 20, 2017 – National Weather Service

... Heat advisory remains in effect until 9 PM CDT this evening...

* temperature... high temperatures in the mid and upper 90s
combined with high humidity will result in dangerous heat
index values of 105 to 109 degrees during the afternoon.

* Impacts... the combination of hot temperatures and high
humidity will create a dangerous situation in which heat
illnesses are possible.

Precautionary/preparedness actions...

Take extra precautions if you work or spend time outside. When
possible, reschedule strenuous activities to early morning or
evening. Know the signs and symptoms of heat exhaustion and heat
stroke. Wear light weight and loose fitting clothing when
possible and drink plenty of water.